Time;durP1;ratioP1;P1;durP2;ratioP2;P2;SDS_P1;SDS_P2;PMS_P1;PMS_P2;Temp;Humidity;BMP_temperature;BMP_pressure;BME280_temperature;BME280_humidity;BME280_pressure;Samples;Min_cycle;Max_cycle;Signal;HPM_P1;HPM_P2
2021/12/04 00:00:01;;;;;;;4.20;2.27;;;;;;;2.32;57.66;94702.19;4976279;28;20278;-82
2021/12/04 00:02:40;;;;;;;2.10;1.67;;;;;;;2.30;57.13;94701.56;4976481;28;20228;-83
2021/12/04 00:05:33;;;;;;;1.87;1.77;;;;;;;2.33;56.74;94688.56;4974842;28;20298;-82
2021/12/04 00:08:02;;;;;;;1.90;1.57;;;;;;;2.41;56.32;94673.38;4975738;28;20246;-83
2021/12/04 00:10:38;;;;;;;2.00;1.60;;;;;;;2.40;56.82;94663.38;4976421;28;20239;-82
2021/12/04 00:13:08;;;;;;;1.60;1.50;;;;;;;2.43;56.11;94652.91;4987029;28;20235;-83
2021/12/04 00:15:59;;;;;;;1.60;1.30;;;;;;;2.44;56.07;94649.44;4983366;28;20589;-83
2021/12/04 00:18:26;;;;;;;1.57;1.40;;;;;;;2.51;56.34;94642.78;4971792;28;20192;-83
2021/12/04 00:20:52;;;;;;;3.23;1.80;;;;;;;2.52;56.02;94657.06;4980755;28;20259;-83
2021/12/04 00:23:19;;;;;;;4.03;1.50;;;;;;;2.30;56.57;94627.13;4981269;28;20216;-83
2021/12/04 00:25:45;;;;;;;2.37;1.70;;;;;;;2.30;57.01;94645.69;4980633;28;20203;-82
2021/12/04 00:28:13;;;;;;;1.67;1.50;;;;;;;2.33;57.23;94626.81;4981060;28;20219;-83
2021/12/04 00:30:39;;;;;;;1.37;1.27;;;;;;;2.36;57.06;94627.31;4980801;28;20726;-83
2021/12/04 00:33:10;;;;;;;1.80;1.63;;;;;;;2.41;55.86;94612.41;4980573;28;20224;-83
2021/12/04 00:35:44;;;;;;;3.83;1.63;;;;;;;2.44;55.59;94613.88;4979244;28;20296;-83
2021/12/04 00:49:22;;;;;;;1.60;1.50;;;;;;;2.57;57.14;94605.81;4978324;28;20230;-82
2021/12/04 00:51:53;;;;;;;1.83;1.40;;;;;;;2.61;56.38;94590.13;4978267;28;20235;-82
2021/12/04 00:54:22;;;;;;;2.93;1.50;;;;;;;2.61;56.68;94585.06;4978543;28;20199;-83
2021/12/04 00:56:48;;;;;;;1.67;1.57;;;;;;;2.66;56.91;94580.31;4979394;28;20250;-82
2021/12/04 00:59:16;;;;;;;2.23;1.80;;;;;;;2.72;56.70;94584.75;4977156;28;20258;-82
2021/12/04 01:01:44;;;;;;;2.00;1.60;;;;;;;2.78;56.79;94575.75;4977697;28;20235;-83
2021/12/04 01:04:11;;;;;;;2.23;1.60;;;;;;;2.81;56.14;94579.72;4977309;28;20303;-82
2021/12/04 01:06:38;;;;;;;2.23;1.70;;;;;;;2.89;55.48;94589.91;4976845;28;20210;-83
2021/12/04 01:09:06;;;;;;;2.57;1.67;;;;;;;2.89;55.62;94587.34;4976300;28;20275;-82
2021/12/04 01:11:32;;;;;;;2.07;1.30;;;;;;;2.86;55.29;94591.03;4976675;28;20235;-82
2021/12/04 01:13:59;;;;;;;1.67;1.50;;;;;;;2.79;55.60;94587.50;4976351;28;20207;-83
2021/12/04 01:16:26;;;;;;;1.50;1.40;;;;;;;2.70;56.07;94594.28;4976553;28;20235;-83
2021/12/04 01:18:53;;;;;;;1.20;1.10;;;;;;;2.59;56.26;94574.25;4976648;28;20200;-83
2021/12/04 01:21:19;;;;;;;3.57;1.63;;;;;;;2.58;56.35;94609.97;4976772;28;20220;-83
2021/12/04 01:23:46;;;;;;;1.53;1.43;;;;;;;2.59;55.96;94611.56;4975970;28;20208;-82
2021/12/04 01:26:12;;;;;;;1.47;1.17;;;;;;;2.58;56.89;94605.69;4976536;28;20671;-83
2021/12/04 01:28:39;;;;;;;1.23;1.00;;;;;;;2.60;56.75;94615.69;4976128;28;20200;-83
2021/12/04 01:31:05;;;;;;;1.50;1.07;;;;;;;2.64;56.75;94612.69;4975193;28;20223;-82
2021/12/04 01:33:33;;;;;;;1.17;1.03;;;;;;;2.74;56.89;94613.38;4975727;28;20208;-82
2021/12/04 01:36:00;;;;;;;1.27;1.17;;;;;;;2.76;56.62;94598.75;4975628;28;20228;-83
2021/12/04 01:38:26;;;;;;;1.00;0.90;;;;;;;2.80;56.54;94598.47;4975165;28;20280;-83
2021/12/04 01:40:53;;;;;;;0.73;0.73;;;;;;;2.78;56.80;94586.69;4974825;28;20232;-82
2021/12/04 01:43:19;;;;;;;1.10;1.00;;;;;;;2.85;56.67;94569.09;4975736;28;20219;-82
2021/12/04 01:45:46;;;;;;;1.10;1.00;;;;;;;2.84;56.60;94554.81;4975474;28;20849;-82
2021/12/04 01:48:12;;;;;;;1.33;1.00;;;;;;;2.71;57.33;94527.25;4976151;28;20207;-82
2021/12/04 01:50:40;;;;;;;1.37;0.90;;;;;;;2.72;58.04;94545.84;4975632;28;20286;-83
2021/12/04 01:53:07;;;;;;;1.37;1.00;;;;;;;2.81;58.59;94527.16;4975283;28;20232;-82
2021/12/04 01:55:35;;;;;;;0.90;0.90;;;;;;;2.77;59.30;94511.41;4975434;28;20208;-82
2021/12/04 01:58:03;;;;;;;1.47;1.10;;;;;;;2.62;59.86;94514.72;4975653;28;20207;-84
2021/12/04 02:00:33;;;;;;;1.20;1.10;;;;;;;2.70;60.41;94499.47;4975036;28;20231;-84
2021/12/04 02:02:59;;;;;;;1.00;1.00;;;;;;;2.75;60.55;94487.91;4976512;28;20224;-84
2021/12/04 02:05:26;;;;;;;2.50;0.90;;;;;;;2.75;60.16;94490.44;4975528;28;20456;-84
2021/12/04 02:07:53;;;;;;;2.30;1.20;;;;;;;2.78;60.20;94489.34;4976377;28;20257;-83
2021/12/04 02:10:20;;;;;;;1.00;0.90;;;;;;;2.75;60.77;94482.81;4977204;28;20232;-84
2021/12/04 02:12:48;;;;;;;1.10;1.00;;;;;;;2.81;60.81;94483.94;4976046;28;20271;-84
2021/12/04 02:15:16;;;;;;;1.20;1.10;;;;;;;2.92;60.35;94485.38;4976506;28;20284;-84
2021/12/04 02:17:45;;;;;;;1.10;1.00;;;;;;;2.99;60.24;94482.06;4977631;28;20243;-84
2021/12/04 02:20:17;;;;;;;1.93;1.10;;;;;;;3.02;60.27;94471.59;4978746;28;20232;-84
2021/12/04 02:22:44;;;;;;;1.20;1.10;;;;;;;3.02;60.58;94466.50;4978702;28;20255;-85
2021/12/04 02:25:10;;;;;;;1.00;0.90;;;;;;;3.07;60.37;94461.75;4978878;28;20208;-84
2021/12/04 02:27:37;;;;;;;3.97;1.10;;;;;;;3.18;60.42;94480.16;4960174;29;20208;-84
2021/12/04 02:30:05;;;;;;;2.10;1.00;;;;;;;3.22;60.16;94492.41;4959309;28;20233;-84
2021/12/04 02:32:32;;;;;;;1.43;1.20;;;;;;;3.22;60.29;94484.78;4977947;28;20212;-84
2021/12/04 02:34:59;;;;;;;1.60;1.37;;;;;;;3.21;60.39;94474.78;4977910;28;20227;-84
2021/12/04 02:37:27;;;;;;;1.20;1.10;;;;;;;3.21;60.33;94478.09;4982810;28;20223;-85
2021/12/04 02:39:58;;;;;;;3.77;1.10;;;;;;;3.19;60.68;94472.38;4982047;28;20239;-84
2021/12/04 02:42:27;;;;;;;1.10;1.00;;;;;;;3.05;61.01;94478.91;4982717;28;20274;-84
2021/12/04 02:44:54;;;;;;;1.20;1.10;;;;;;;3.10;61.41;94473.31;4982240;28;20223;-85
2021/12/04 02:47:20;;;;;;;1.40;1.30;;;;;;;3.12;61.52;94468.88;4983233;28;20207;-84
2021/12/04 02:49:47;;;;;;;1.60;1.50;;;;;;;3.07;61.20;94469.38;4981662;28;20243;-84
2021/12/04 02:52:15;;;;;;;3.27;1.30;;;;;;;3.02;61.68;94469.03;4982085;28;20220;-85
2021/12/04 02:54:43;;;;;;;1.73;1.53;;;;;;;2.95;62.18;94480.78;4982554;28;20200;-84
2021/12/04 02:57:12;;;;;;;1.80;1.40;;;;;;;3.08;62.32;94477.75;4982980;28;20232;-84
2021/12/04 02:59:39;;;;;;;2.40;1.20;;;;;;;3.01;62.84;94474.28;4980468;28;20913;-84
2021/12/04 03:02:06;;;;;;;1.30;1.20;;;;;;;3.06;62.34;94466.97;4981344;28;20248;-84
2021/12/04 03:04:33;;;;;;;1.30;1.20;;;;;;;3.15;62.73;94448.22;4980668;28;20601;-84
2021/12/04 03:07:00;;;;;;;1.37;1.20;;;;;;;3.18;63.35;94444.56;4980686;28;20207;-84
2021/12/04 03:09:26;;;;;;;1.63;1.10;;;;;;;3.20;63.02;94450.28;4979997;28;20311;-84
2021/12/04 03:11:54;;;;;;;1.40;1.13;;;;;;;3.25;63.06;94445.53;4981496;28;20220;-84
2021/12/04 03:14:22;;;;;;;2.47;1.33;;;;;;;3.28;63.12;94451.06;4982355;28;20219;-84
2021/12/04 03:16:48;;;;;;;1.50;1.30;;;;;;;3.33;63.11;94445.50;4982481;28;20232;-84
2021/12/04 03:19:17;;;;;;;1.40;1.30;;;;;;;3.39;63.01;94450.75;4982183;28;20240;-85
2021/12/04 03:21:43;;;;;;;1.23;1.10;;;;;;;3.44;62.81;94443.44;4981287;28;20220;-84
2021/12/04 03:24:13;;;;;;;1.40;1.30;;;;;;;3.46;62.71;94440.75;4982676;28;20206;-85
2021/12/04 03:26:39;;;;;;;1.70;1.10;;;;;;;3.46;62.88;94438.19;4981179;28;20207;-85
2021/12/04 03:29:11;;;;;;;1.93;1.10;;;;;;;3.44;62.02;94442.66;4980801;28;20623;-84
2021/12/04 03:31:54;;;;;;;1.10;1.00;;;;;;;3.45;62.32;94429.78;4981048;28;20224;-84
2021/12/04 03:40:08;;;;;;;1.60;1.23;;;;;;;3.44;62.71;94424.84;4962508;28;20827;-84
2021/12/04 03:42:35;;;;;;;1.60;1.27;;;;;;;3.43;63.29;94420.72;4981987;28;20284;-85
2021/12/04 03:45:06;;;;;;;3.30;1.07;;;;;;;3.34;64.25;94409.75;4981134;28;20211;-84
2021/12/04 03:47:32;;;;;;;1.10;1.00;;;;;;;3.27;64.69;94411.31;4982161;28;20211;-85
2021/12/04 03:49:59;;;;;;;1.27;1.17;;;;;;;3.08;66.80;94383.69;4980569;28;20259;-84
2021/12/04 03:52:25;;;;;;;1.10;1.00;;;;;;;2.98;67.82;94385.63;4981019;28;20220;-84
2021/12/04 03:54:52;;;;;;;1.10;1.07;;;;;;;3.00;68.05;94381.16;4980324;28;20212;-84
2021/12/04 03:57:19;;;;;;;0.97;0.97;;;;;;;2.98;68.96;94370.38;4981875;28;20220;-84
2021/12/04 03:59:47;;;;;;;1.73;1.10;;;;;;;2.97;69.07;94356.06;4980879;28;20227;-85
2021/12/04 04:02:16;;;;;;;1.63;1.03;;;;;;;2.85;70.74;94340.34;4980223;28;20224;-84
2021/12/04 04:04:44;;;;;;;1.00;0.90;;;;;;;2.81;69.57;94338.28;4980445;28;20232;-84
2021/12/04 04:07:10;;;;;;;1.00;0.97;;;;;;;2.81;71.12;94345.91;4980733;28;20272;-84
2021/12/04 04:09:37;;;;;;;0.97;0.90;;;;;;;2.68;71.35;94342.13;4981061;28;20232;-85
2021/12/04 04:12:04;;;;;;;1.70;1.30;;;;;;;2.63;72.96;94333.38;4980176;28;20223;-84
2021/12/04 04:14:31;;;;;;;1.30;1.20;;;;;;;2.66;72.97;94325.44;4979846;28;20208;-84
2021/12/04 04:16:58;;;;;;;1.37;1.27;;;;;;;2.80;72.33;94331.63;4979881;28;20277;-84
2021/12/04 04:19:27;;;;;;;1.43;1.07;;;;;;;2.77;73.14;94323.34;4980097;28;20232;-84
2021/12/04 04:21:56;;;;;;;1.03;0.97;;;;;;;2.79;73.87;94320.66;4980160;28;20216;-84
2021/12/04 04:24:23;;;;;;;1.30;1.20;;;;;;;2.85;73.95;94321.78;4979772;28;20575;-84
2021/12/04 04:26:50;;;;;;;1.57;1.20;;;;;;;2.80;73.82;94322.25;4979932;28;20204;-84
2021/12/04 04:29:16;;;;;;;1.27;1.17;;;;;;;2.78;74.91;94319.84;4979987;28;20579;-84
2021/12/04 04:31:46;;;;;;;1.30;1.20;;;;;;;2.75;74.98;94320.16;4980506;28;20231;-84
2021/12/04 04:34:19;;;;;;;0.90;0.90;;;;;;;2.73;74.45;94318.75;4980176;28;20228;-84
2021/12/04 04:36:59;;;;;;;3.40;1.10;;;;;;;2.71;74.95;94320.66;4980478;28;20416;-84
2021/12/04 04:39:52;;;;;;;1.20;1.10;;;;;;;2.65;75.44;94322.09;4979935;28;20238;-84
2021/12/04 04:58:58;;;;;;;1.17;1.00;;;;;;;2.72;79.99;94309.53;4980449;28;20231;-84
2021/12/04 05:01:52;;;;;;;1.57;1.00;;;;;;;2.79;79.99;94297.78;4980280;28;20223;-84
2021/12/04 05:12:47;;;;;;;1.37;1.27;;;;;;;3.03;82.45;94279.97;4961160;28;20280;-84
2021/12/04 05:15:17;;;;;;;1.63;1.03;;;;;;;3.06;82.41;94278.84;4965510;28;20291;-84
2021/12/04 05:17:55;;;;;;;1.40;1.10;;;;;;;3.07;81.96;94276.13;4979588;28;20224;-84
2021/12/04 05:20:27;;;;;;;2.40;1.10;;;;;;;3.12;82.81;94275.63;4978954;28;20242;-84
2021/12/04 05:22:53;;;;;;;2.30;1.20;;;;;;;3.04;84.17;94266.28;4977570;28;20236;-84
2021/12/04 05:25:21;;;;;;;1.67;1.30;;;;;;;3.00;85.06;94254.84;4978537;28;20202;-84
2021/12/04 05:27:47;;;;;;;1.20;1.10;;;;;;;3.02;85.35;94252.16;4977642;28;20200;-84
2021/12/04 05:30:14;;;;;;;1.50;1.20;;;;;;;3.05;85.34;94244.19;4977893;28;20236;-84
2021/12/04 05:32:40;;;;;;;1.30;1.20;;;;;;;3.07;85.57;94237.22;4978165;28;20224;-84
2021/12/04 05:35:07;;;;;;;1.77;1.20;;;;;;;3.03;86.31;94231.66;4978451;28;20219;-84
2021/12/04 05:37:33;;;;;;;1.20;1.10;;;;;;;3.05;86.75;94234.84;4977488;28;20220;-84
2021/12/04 05:40:00;;;;;;;2.70;1.30;;;;;;;3.10;86.10;94232.56;4977610;28;20660;-84
2021/12/04 05:42:29;;;;;;;2.03;1.40;;;;;;;3.17;86.07;94235.25;4978020;28;20231;-84
2021/12/04 05:44:55;;;;;;;1.10;1.10;;;;;;;3.21;85.68;94231.44;4977567;28;20212;-84
2021/12/04 05:47:25;;;;;;;1.33;1.10;;;;;;;3.25;85.45;94224.28;4978182;28;20215;-84
2021/12/04 05:49:58;;;;;;;1.87;1.43;;;;;;;3.26;85.82;94219.03;4978092;28;20242;-83
2021/12/04 05:52:37;;;;;;;1.63;1.10;;;;;;;3.17;87.11;94232.72;4978941;28;20236;-84
2021/12/04 05:55:14;;;;;;;1.40;1.23;;;;;;;3.22;86.92;94220.31;4981446;28;20196;-84
2021/12/04 05:57:42;;;;;;;1.27;1.10;;;;;;;3.30;86.62;94222.00;4981881;28;20220;-84
2021/12/04 06:00:14;;;;;;;2.60;1.20;;;;;;;3.29;86.48;94216.13;4981791;28;20597;-84
2021/12/04 06:02:40;;;;;;;2.30;1.30;;;;;;;3.30;87.01;94207.53;4981324;28;20267;-84
2021/12/04 06:05:08;;;;;;;1.60;1.50;;;;;;;3.34;86.48;94213.09;4981365;28;20207;-84
2021/12/04 06:07:34;;;;;;;1.40;1.30;;;;;;;3.41;94.84;94207.19;4979961;28;20232;-84
2021/12/04 06:10:01;;;;;;;1.30;1.20;;;;;;;3.42;87.63;94203.69;4981384;28;20236;-84
2021/12/04 06:12:27;;;;;;;1.40;1.30;;;;;;;3.37;87.71;94200.03;4981473;28;20248;-84
2021/12/04 06:14:55;;;;;;;2.50;1.20;;;;;;;3.42;87.13;94198.59;4980351;28;20212;-83
2021/12/04 06:17:23;;;;;;;2.60;1.20;;;;;;;3.42;87.50;94193.50;4980554;28;20220;-84
2021/12/04 06:22:41;;;;;;;1.20;1.10;;;;;;;3.39;88.79;94181.13;4981288;28;20234;-84
2021/12/04 06:25:10;;;;;;;1.50;1.40;;;;;;;3.47;87.61;94185.34;4981139;28;20255;-84
2021/12/04 06:27:36;;;;;;;1.57;1.30;;;;;;;3.54;87.60;94188.03;4981113;28;20582;-84
2021/12/04 06:30:05;;;;;;;2.10;1.20;;;;;;;3.55;87.67;94187.06;4980001;28;20239;-85
2021/12/04 06:32:31;;;;;;;2.20;1.30;;;;;;;3.54;88.14;94180.41;4981458;28;20266;-84
2021/12/04 06:34:58;;;;;;;2.07;1.17;;;;;;;3.59;87.75;94186.56;4980668;28;20204;-83
2021/12/04 06:37:25;;;;;;;1.40;1.20;;;;;;;3.63;88.09;94189.56;4981919;28;20343;-84
2021/12/04 06:39:51;;;;;;;4.97;3.70;;;;;;;3.68;87.18;94182.22;4980970;28;20243;-83
2021/12/04 06:42:17;;;;;;;1.47;1.27;;;;;;;3.63;88.35;94182.75;4979597;28;20563;-84
2021/12/04 06:44:44;;;;;;;2.13;1.57;;;;;;;3.70;87.49;94188.72;4978285;28;20587;-84
2021/12/04 06:47:12;;;;;;;1.73;1.47;;;;;;;3.68;88.22;94188.09;4979240;28;20229;-84
2021/12/04 06:49:41;;;;;;;1.57;1.30;;;;;;;3.72;87.75;94189.34;4980580;28;20232;-84
2021/12/04 06:52:12;;;;;;;1.30;1.20;;;;;;;3.70;89.06;94191.25;4983861;28;20216;-84
2021/12/04 06:54:41;;;;;;;1.50;1.40;;;;;;;3.72;88.11;94184.25;4977385;28;20203;-84
2021/12/04 06:57:10;;;;;;;1.37;1.27;;;;;;;3.72;88.78;94186.81;4978635;28;20295;-84
2021/12/04 06:59:42;;;;;;;1.43;1.33;;;;;;;3.75;88.91;94178.03;4977701;28;20251;-84
2021/12/04 07:02:09;;;;;;;4.40;2.37;;;;;;;3.98;100.00;94183.94;4977856;28;20260;-82
2021/12/04 07:04:39;;;;;;;12.07;2.83;;;;;;;4.48;100.00;94174.91;4975684;28;20208;-84
2021/12/04 07:07:06;;;;;;;8.20;2.30;;;;;;;5.05;100.00;94171.75;4976308;28;20243;-84
2021/12/04 07:09:33;;;;;;;4.53;2.23;;;;;;;5.47;97.07;94179.53;4975373;28;20231;-83
2021/12/04 07:12:02;;;;;;;3.67;1.70;;;;;;;5.51;86.66;94170.53;4974816;28;20247;-84
2021/12/04 07:14:29;;;;;;;4.37;2.20;;;;;;;5.51;89.03;94172.31;4976329;28;20208;-85
2021/12/04 07:16:55;;;;;;;16.33;2.40;;;;;;;5.43;87.65;94167.28;4977907;28;20231;-84
2021/12/04 07:19:22;;;;;;;6.27;1.90;;;;;;;5.42;88.92;94158.84;4982158;28;20657;-85
2021/12/04 07:21:50;;;;;;;2.57;1.47;;;;;;;5.31;81.71;94161.06;4980776;28;20227;-84
2021/12/04 07:24:17;;;;;;;2.73;1.83;;;;;;;5.09;81.66;94158.47;4981134;28;20184;-86
2021/12/04 07:26:44;;;;;;;2.37;1.20;;;;;;;4.76;83.02;94147.84;4981492;28;20211;-86
2021/12/04 07:29:11;;;;;;;2.10;1.90;;;;;;;4.53;85.50;94154.78;4979478;28;20291;-85
2021/12/04 07:31:38;;;;;;;1.97;1.77;;;;;;;4.38;86.43;94148.88;4978831;28;20224;-84
2021/12/04 07:34:05;;;;;;;2.03;1.70;;;;;;;4.30;86.59;94134.47;4979821;28;20232;-85
2021/12/04 07:36:32;;;;;;;4.00;1.60;;;;;;;4.11;89.23;94128.09;4979216;28;20243;-85
2021/12/04 07:39:00;;;;;;;1.80;1.63;;;;;;;4.08;89.22;94127.66;4979976;28;20224;-85
2021/12/04 07:41:26;;;;;;;1.83;1.60;;;;;;;4.03;90.77;94129.94;4978825;28;20216;-86
2021/12/04 07:43:53;;;;;;;1.93;1.73;;;;;;;4.00;90.72;94131.09;4979718;28;20200;-84
2021/12/04 07:46:20;;;;;;;2.70;1.50;;;;;;;4.02;91.03;94130.91;4978447;28;20575;-84
2021/12/04 07:48:46;;;;;;;2.97;1.50;;;;;;;4.04;90.70;94127.22;4977666;28;20211;-85
2021/12/04 07:51:14;;;;;;;2.57;1.60;;;;;;;4.07;90.52;94137.06;4959578;28;20201;-85
2021/12/04 07:53:41;;;;;;;1.67;1.40;;;;;;;4.13;90.46;94131.28;4969965;28;20329;-84
2021/12/04 07:56:09;;;;;;;1.90;1.60;;;;;;;4.15;89.75;94134.44;4978614;28;20299;-84
2021/12/04 07:58:36;;;;;;;1.60;1.47;;;;;;;4.22;89.35;94126.13;4978368;28;20283;-85
2021/12/04 08:01:02;;;;;;;1.93;1.77;;;;;;;4.18;90.04;94135.88;4977296;28;20235;-85
2021/12/04 08:03:29;;;;;;;4.20;3.00;;;;;;;4.24;89.33;94137.69;4978115;28;20564;-85
2021/12/04 08:05:55;;;;;;;3.00;1.80;;;;;;;4.21;89.87;94138.06;4977726;28;20204;-84
2021/12/04 08:08:22;;;;;;;1.97;1.60;;;;;;;4.23;90.64;94130.25;4979257;28;20196;-84
2021/12/04 08:10:48;;;;;;;3.83;1.70;;;;;;;4.24;90.57;94132.59;4978466;28;20238;-85
2021/12/04 08:13:16;;;;;;;1.70;1.60;;;;;;;4.25;90.01;94130.84;4978235;28;20220;-85
2021/12/04 08:15:43;;;;;;;2.10;1.50;;;;;;;4.25;90.74;94130.84;4979105;28;20200;-85
2021/12/04 08:18:09;;;;;;;1.70;1.60;;;;;;;4.23;91.07;94125.16;4970842;28;20234;-85
2021/12/04 08:20:39;;;;;;;1.83;1.60;;;;;;;4.24;90.93;94127.50;4958073;28;20236;-85
2021/12/04 08:23:07;;;;;;;2.03;1.70;;;;;;;4.27;90.89;94123.81;4975383;28;20228;-85
2021/12/04 08:25:34;;;;;;;2.10;1.90;;;;;;;4.25;91.26;94118.91;4975899;28;20224;-85
2021/12/04 08:28:02;;;;;;;2.53;1.60;;;;;;;4.25;91.90;94123.19;4975354;28;20209;-85
2021/12/04 08:30:33;;;;;;;3.13;1.70;;;;;;;4.24;92.14;94117.31;4975456;28;20663;-86
2021/12/04 08:33:00;;;;;;;2.27;1.70;;;;;;;4.24;92.88;94102.03;4975988;28;20228;-85
2021/12/04 08:35:28;;;;;;;1.70;1.60;;;;;;;4.30;92.11;94108.19;4975261;28;20200;-85
2021/12/04 08:37:58;;;;;;;1.50;1.40;;;;;;;4.33;92.17;94111.19;4974169;28;20247;-85
2021/12/04 08:40:25;;;;;;;2.10;1.50;;;;;;;4.32;92.93;94111.38;4973063;28;20307;-85
2021/12/04 08:42:52;;;;;;;1.93;1.73;;;;;;;4.30;93.44;94109.00;4974388;28;20234;-87
2021/12/04 08:45:21;;;;;;;2.50;1.53;;;;;;;4.34;92.98;94106.88;4973530;28;20208;-86
2021/12/04 08:47:49;;;;;;;1.70;1.60;;;;;;;4.32;93.62;94104.50;4974335;28;20209;-84
2021/12/04 08:50:20;;;;;;;2.20;1.90;;;;;;;4.33;93.49;94106.09;4974962;28;20224;-86
2021/12/04 08:52:47;;;;;;;1.30;1.23;;;;;;;4.28;94.66;94100.72;4975422;28;20283;-85
2021/12/04 08:55:14;;;;;;;2.57;1.67;;;;;;;4.32;94.54;94098.63;4974894;28;20725;-85
2021/12/04 08:57:41;;;;;;;2.97;1.53;;;;;;;4.36;94.88;94102.41;4974954;28;20196;-85
2021/12/04 09:00:10;;;;;;;1.60;1.50;;;;;;;4.40;94.24;94101.09;4974678;28;20231;-84
2021/12/04 09:02:38;;;;;;;2.63;1.67;;;;;;;4.45;95.13;94098.81;4975088;28;20766;-86
2021/12/04 09:05:07;;;;;;;3.43;1.50;;;;;;;4.49;95.15;94095.72;4975314;28;20212;-85
2021/12/04 09:07:33;;;;;;;2.13;1.80;;;;;;;4.53;94.90;94098.72;4974598;28;20204;-85
2021/12/04 09:10:00;;;;;;;3.43;1.70;;;;;;;4.61;95.09;94096.09;4974531;28;20236;-85
2021/12/04 09:12:28;;;;;;;3.00;1.70;;;;;;;4.63;95.49;94098.44;4974843;28;20223;-86
2021/12/04 09:14:56;;;;;;;3.53;2.37;;;;;;;4.72;94.79;94088.00;4974734;28;20235;-86
2021/12/04 09:17:23;;;;;;;2.30;1.73;;;;;;;4.83;94.61;94096.94;4974411;28;20207;-85
2021/12/04 09:19:50;;;;;;;1.67;1.50;;;;;;;4.91;93.94;94085.84;4968053;28;20232;-85
2021/12/04 09:22:26;;;;;;;1.90;1.70;;;;;;;4.93;94.15;94096.69;4963204;28;20779;-85
2021/12/04 09:24:56;;;;;;;2.67;1.80;;;;;;;5.00;94.45;94090.69;4961318;28;20238;-84
2021/12/04 09:27:38;;;;;;;2.30;1.90;;;;;;;5.07;94.12;94089.00;4972065;28;20204;-85
2021/12/04 09:30:22;;;;;;;2.13;1.80;;;;;;;5.14;93.49;94084.75;4959750;28;20227;-84
2021/12/04 10:00:27;;;;;;;2.37;1.67;;;;;;;5.83;95.31;94051.81;4968102;28;20267;-84
2021/12/04 10:03:16;;;;;;;1.90;1.40;;;;;;;5.83;96.37;94048.47;4989340;28;20231;-85
2021/12/04 10:17:14;;;;;;;1.00;1.00;;;;;;;5.88;98.56;94034.22;4968327;28;20877;-84
2021/12/04 10:19:57;;;;;;;1.27;1.17;;;;;;;5.89;98.71;94022.22;4957611;28;20236;-85
2021/12/04 10:22:32;;;;;;;3.63;1.37;;;;;;;5.98;100.00;94018.53;4972364;28;20224;-83
2021/12/04 10:33:28;;;;;;;1.80;1.50;;;;;;;6.43;96.88;94006.22;4987948;28;20223;-86
2021/12/04 10:35:55;;;;;;;1.30;1.17;;;;;;;6.47;97.42;94007.44;4986024;28;20207;-86
2021/12/04 10:38:23;;;;;;;1.53;1.43;;;;;;;6.51;97.50;93993.28;4987288;28;20220;-87
2021/12/04 10:40:51;;;;;;;1.30;1.20;;;;;;;6.48;98.00;93997.00;4988089;28;20295;-86
2021/12/04 10:43:22;;;;;;;1.40;1.30;;;;;;;6.50;98.50;93987.38;4988131;28;20223;-87
2021/12/04 10:45:54;;;;;;;1.70;1.50;;;;;;;6.42;99.66;93984.19;4986285;28;20251;-86
2021/12/04 10:48:24;;;;;;;1.77;1.30;;;;;;;6.44;100.00;93984.78;4986912;28;20667;-86
2021/12/04 10:50:59;;;;;;;1.83;1.63;;;;;;;6.51;100.00;93983.06;4987471;28;20550;-87
2021/12/04 10:53:28;;;;;;;1.87;1.40;;;;;;;6.55;100.00;93981.69;4981888;28;20552;-86
2021/12/04 10:56:10;;;;;;;1.47;1.37;;;;;;;6.58;99.73;93965.97;4976240;28;20203;-86
2021/12/04 10:59:08;;;;;;;1.47;1.30;;;;;;;6.64;99.87;93964.41;4977352;28;20228;-85
2021/12/04 11:01:51;;;;;;;1.37;1.27;;;;;;;6.61;99.74;93957.13;4976277;28;20310;-86
2021/12/04 11:04:31;;;;;;;1.20;1.10;;;;;;;6.56;100.00;93960.25;4976422;28;20200;-86
2021/12/04 11:21:24;;;;;;;1.63;1.43;;;;;;;6.68;100.00;93932.38;4955083;28;20597;-86
2021/12/04 11:27:18;;;;;;;1.77;1.50;;;;;;;6.75;100.00;93925.47;4962705;28;20608;-85
2021/12/04 11:38:18;;;;;;;1.37;1.27;;;;;;;6.88;100.00;93910.19;4973033;28;20243;-86
2021/12/04 11:40:57;;;;;;;1.83;1.40;;;;;;;6.94;100.00;93905.06;4972912;28;20259;-86
2021/12/04 11:43:29;;;;;;;2.13;1.30;;;;;;;6.98;100.00;93900.34;4974435;28;20227;-85
2021/12/04 11:46:13;;;;;;;2.03;1.17;;;;;;;6.99;100.00;93904.47;4974494;28;20267;-86
2021/12/04 11:48:42;;;;;;;1.40;1.20;;;;;;;7.01;100.00;93905.06;4973496;28;20204;-86
2021/12/04 11:51:13;;;;;;;1.20;1.10;;;;;;;7.05;100.00;93905.47;4971825;28;20231;-86
2021/12/04 11:53:40;;;;;;;1.40;1.20;;;;;;;7.08;100.00;93905.88;4972206;28;20203;-86
2021/12/04 11:56:14;;;;;;;3.23;1.27;;;;;;;7.06;100.00;93902.72;4972138;28;20200;-86
2021/12/04 11:58:43;;;;;;;2.80;1.20;;;;;;;7.08;100.00;93907.66;4971066;28;20235;-85
2021/12/04 12:01:22;;;;;;;1.40;1.30;;;;;;;7.06;100.00;93901.94;4971577;28;20204;-85
2021/12/04 12:03:53;;;;;;;1.30;1.20;;;;;;;7.10;100.00;93903.13;4972057;28;20200;-86
2021/12/04 12:06:31;;;;;;;1.60;1.43;;;;;;;7.17;100.00;93896.22;4971418;28;20889;-86
2021/12/04 12:09:06;;;;;;;1.20;1.10;;;;;;;7.17;100.00;93899.56;4971596;28;20192;-86
2021/12/04 12:11:33;;;;;;;1.20;1.10;;;;;;;7.18;100.00;93901.13;4972455;28;20228;-86
2021/12/04 12:14:03;;;;;;;1.37;1.27;;;;;;;7.18;100.00;93890.13;4972147;28;20208;-86
2021/12/04 12:16:35;;;;;;;1.27;1.17;;;;;;;7.17;100.00;93886.78;4972974;28;20215;-86
2021/12/04 12:19:08;;;;;;;1.47;1.30;;;;;;;7.20;100.00;93890.72;4971844;28;20589;-86
2021/12/04 12:21:43;;;;;;;1.60;1.40;;;;;;;7.22;100.00;93884.41;4972364;28;20228;-86
2021/12/04 12:27:14;;;;;;;1.57;1.20;;;;;;;7.26;100.00;93874.56;4952975;28;20248;-86
2021/12/04 12:32:57;;;;;;;1.50;1.40;;;;;;;7.33;100.00;93870.22;4972231;28;20218;-86
2021/12/04 12:38:13;;;;;;;1.40;1.30;;;;;;;7.34;100.00;93860.75;4971878;28;20248;-87
2021/12/04 12:40:39;;;;;;;1.13;1.07;;;;;;;7.42;100.00;93863.13;4971774;28;20236;-86
2021/12/04 12:43:18;;;;;;;1.57;1.30;;;;;;;7.55;100.00;93847.75;4971916;28;20224;-86
2021/12/04 12:45:58;;;;;;;2.07;1.20;;;;;;;7.61;100.00;93847.72;4971494;28;20302;-86
2021/12/04 12:48:24;;;;;;;1.53;1.40;;;;;;;7.72;100.00;93843.75;4972246;28;20216;-86
2021/12/04 12:50:54;;;;;;;1.10;0.93;;;;;;;7.82;100.00;93845.91;4971265;28;20247;-86
2021/12/04 12:53:26;;;;;;;2.03;1.00;;;;;;;7.87;100.00;93834.06;4971713;28;20327;-86
2021/12/04 12:56:04;;;;;;;1.10;1.00;;;;;;;7.88;100.00;93827.16;4971523;28;20247;-86
2021/12/04 12:58:38;;;;;;;1.77;1.03;;;;;;;7.87;100.00;93828.16;4971239;28;20207;-86
2021/12/04 13:12:22;;;;;;;0.70;0.70;;;;;;;8.04;100.00;93823.34;4969970;28;20730;-87
2021/12/04 13:14:51;;;;;;;1.83;0.80;;;;;;;8.07;100.00;93813.50;4971447;28;20204;-86
2021/12/04 13:17:21;;;;;;;0.97;0.80;;;;;;;8.08;100.00;93809.91;4970625;28;20227;-86
2021/12/04 13:19:51;;;;;;;1.10;0.70;;;;;;;8.09;100.00;93816.59;4970881;28;20615;-86
2021/12/04 13:22:22;;;;;;;0.90;0.90;;;;;;;8.13;100.00;93817.00;4970486;28;20297;-86
2021/12/04 13:24:52;;;;;;;2.27;0.87;;;;;;;8.17;100.00;93818.16;4970510;28;20208;-86
2021/12/04 13:29:49;;;;;;;1.33;0.60;;;;;;;8.22;100.00;93798.63;4971247;28;20239;-86
2021/12/04 13:32:18;;;;;;;0.70;0.70;;;;;;;8.22;100.00;93811.44;4971298;28;20231;-86
2021/12/04 13:34:45;;;;;;;0.77;0.77;;;;;;;8.27;100.00;93806.47;4971449;28;20266;-86
2021/12/04 13:37:13;;;;;;;0.50;0.50;;;;;;;8.26;100.00;93804.13;4967157;28;20291;-86
2021/12/04 13:39:43;;;;;;;0.50;0.50;;;;;;;8.28;100.00;93807.25;4969727;28;20611;-87
2021/12/04 13:42:10;;;;;;;0.60;0.60;;;;;;;8.26;100.00;93810.03;4970760;28;20588;-86
2021/12/04 13:44:37;;;;;;;0.70;0.70;;;;;;;8.31;99.94;93796.59;4970440;28;20200;-85
2021/12/04 13:47:06;;;;;;;0.80;0.70;;;;;;;8.36;99.15;93793.44;4971010;28;20212;-87
2021/12/04 13:49:39;;;;;;;0.70;0.70;;;;;;;8.41;97.94;93789.28;4968990;28;20226;-87
2021/12/04 13:52:12;;;;;;;0.60;0.60;;;;;;;8.40;97.48;93792.81;4969891;28;20703;-87
2021/12/04 13:54:46;;;;;;;0.90;0.60;;;;;;;8.42;96.23;93797.75;4950516;29;20287;-87
2021/12/04 13:57:15;;;;;;;0.73;0.70;;;;;;;8.43;95.91;93787.28;4950793;28;20212;-87
2021/12/04 13:59:42;;;;;;;0.70;0.70;;;;;;;8.40;94.94;93790.25;4970020;28;20243;-87
2021/12/04 14:02:20;;;;;;;0.53;0.53;;;;;;;8.43;94.56;93787.28;4969351;28;20310;-87
2021/12/04 14:04:55;;;;;;;0.60;0.60;;;;;;;8.44;94.40;93783.72;4969976;28;20200;-86
2021/12/04 14:07:21;;;;;;;0.50;0.50;;;;;;;8.38;93.34;93787.13;4969892;28;20192;-86
2021/12/04 14:09:49;;;;;;;0.50;0.50;;;;;;;8.38;93.27;93783.75;4970006;28;20262;-86